sensor_id;sensor_type;location;lat;lon;timestamp;P1;durP1;ratioP1;P2;durP2;ratioP2
70268;SDS011;58514;48.398;-4.274;2022-07-24T00:00:56;5.88;;;2.53;;
70268;SDS011;58514;48.398;-4.274;2022-07-24T00:03:21;3.78;;;2.33;;
70268;SDS011;58514;48.398;-4.274;2022-07-24T00:05:47;3.78;;;2.65;;
70268;SDS011;58514;48.398;-4.274;2022-07-24T00:08:13;3.85;;;2.45;;
70268;SDS011;58514;48.398;-4.274;2022-07-24T00:10:39;4.88;;;2.40;;
70268;SDS011;58514;48.398;-4.274;2022-07-24T00:13:04;2.97;;;2.20;;
70268;SDS011;58514;48.398;-4.274;2022-07-24T00:15:30;2.38;;;2.03;;
70268;SDS011;58514;48.398;-4.274;2022-07-24T00:17:56;5.15;;;2.90;;
70268;SDS011;58514;48.398;-4.274;2022-07-24T00:20:22;5.18;;;2.38;;
70268;SDS011;58514;48.398;-4.274;2022-07-24T00:22:48;4.10;;;2.50;;
70268;SDS011;58514;48.398;-4.274;2022-07-24T00:25:14;3.75;;;2.85;;
70268;SDS011;58514;48.398;-4.274;2022-07-24T00:27:39;8.95;;;2.78;;
70268;SDS011;58514;48.398;-4.274;2022-07-24T00:30:05;4.43;;;2.10;;
70268;SDS011;58514;48.398;-4.274;2022-07-24T00:32:32;3.60;;;2.40;;
70268;SDS011;58514;48.398;-4.274;2022-07-24T00:34:57;3.67;;;2.72;;
70268;SDS011;58514;48.398;-4.274;2022-07-24T00:37:23;6.45;;;2.55;;
70268;SDS011;58514;48.398;-4.274;2022-07-24T00:39:49;3.83;;;2.50;;
70268;SDS011;58514;48.398;-4.274;2022-07-24T00:42:14;5.97;;;2.95;;
70268;SDS011;58514;48.398;-4.274;2022-07-24T00:44:40;5.53;;;3.17;;
70268;SDS011;58514;48.398;-4.274;2022-07-24T00:47:06;5.07;;;2.45;;
70268;SDS011;58514;48.398;-4.274;2022-07-24T00:49:31;4.95;;;2.65;;
70268;SDS011;58514;48.398;-4.274;2022-07-24T00:51:57;5.95;;;2.80;;
70268;SDS011;58514;48.398;-4.274;2022-07-24T00:54:23;7.50;;;3.35;;
70268;SDS011;58514;48.398;-4.274;2022-07-24T00:56:50;6.95;;;3.28;;
70268;SDS011;58514;48.398;-4.274;2022-07-24T00:59:17;4.63;;;3.03;;
70268;SDS011;58514;48.398;-4.274;2022-07-24T01:01:44;7.35;;;2.67;;
70268;SDS011;58514;48.398;-4.274;2022-07-24T01:06:36;3.95;;;2.60;;
70268;SDS011;58514;48.398;-4.274;2022-07-24T01:09:04;4.43;;;2.35;;
70268;SDS011;58514;48.398;-4.274;2022-07-24T01:11:30;5.25;;;2.60;;
70268;SDS011;58514;48.398;-4.274;2022-07-24T01:13:56;4.68;;;2.50;;
70268;SDS011;58514;48.398;-4.274;2022-07-24T01:16:22;5.18;;;2.60;;
70268;SDS011;58514;48.398;-4.274;2022-07-24T01:18:48;4.93;;;2.90;;
70268;SDS011;58514;48.398;-4.274;2022-07-24T01:21:13;3.90;;;2.40;;
70268;SDS011;58514;48.398;-4.274;2022-07-24T01:23:39;6.68;;;2.53;;
70268;SDS011;58514;48.398;-4.274;2022-07-24T01:26:06;5.93;;;3.15;;
70268;SDS011;58514;48.398;-4.274;2022-07-24T01:28:33;4.25;;;2.95;;
70268;SDS011;58514;48.398;-4.274;2022-07-24T01:30:59;8.20;;;2.88;;
70268;SDS011;58514;48.398;-4.274;2022-07-24T01:33:24;3.40;;;2.58;;
70268;SDS011;58514;48.398;-4.274;2022-07-24T01:35:50;4.55;;;3.03;;
70268;SDS011;58514;48.398;-4.274;2022-07-24T01:38:17;6.32;;;3.38;;
70268;SDS011;58514;48.398;-4.274;2022-07-24T01:40:43;6.95;;;2.88;;
70268;SDS011;58514;48.398;-4.274;2022-07-24T01:43:09;5.22;;;2.58;;
70268;SDS011;58514;48.398;-4.274;2022-07-24T01:45:35;7.07;;;2.93;;
70268;SDS011;58514;48.398;-4.274;2022-07-24T01:48:01;4.53;;;2.17;;
70268;SDS011;58514;48.398;-4.274;2022-07-24T01:50:27;6.53;;;2.85;;
70268;SDS011;58514;48.398;-4.274;2022-07-24T01:52:53;4.20;;;2.50;;
70268;SDS011;58514;48.398;-4.274;2022-07-24T01:55:20;4.45;;;2.75;;
70268;SDS011;58514;48.398;-4.274;2022-07-24T01:57:46;6.47;;;2.83;;
70268;SDS011;58514;48.398;-4.274;2022-07-24T02:00:12;7.78;;;3.08;;
70268;SDS011;58514;48.398;-4.274;2022-07-24T02:02:39;4.63;;;2.50;;
70268;SDS011;58514;48.398;-4.274;2022-07-24T02:05:06;4.07;;;2.78;;
70268;SDS011;58514;48.398;-4.274;2022-07-24T02:07:32;5.43;;;2.70;;
70268;SDS011;58514;48.398;-4.274;2022-07-24T02:09:58;8.45;;;3.17;;
70268;SDS011;58514;48.398;-4.274;2022-07-24T02:12:24;4.80;;;2.85;;
70268;SDS011;58514;48.398;-4.274;2022-07-24T02:14:50;4.85;;;2.90;;
70268;SDS011;58514;48.398;-4.274;2022-07-24T02:17:15;5.87;;;3.00;;
70268;SDS011;58514;48.398;-4.274;2022-07-24T02:19:41;5.93;;;2.45;;
70268;SDS011;58514;48.398;-4.274;2022-07-24T02:22:07;4.63;;;2.30;;
70268;SDS011;58514;48.398;-4.274;2022-07-24T02:24:33;9.57;;;2.80;;
70268;SDS011;58514;48.398;-4.274;2022-07-24T02:26:58;3.80;;;2.70;;
70268;SDS011;58514;48.398;-4.274;2022-07-24T02:29:24;5.63;;;2.53;;
70268;SDS011;58514;48.398;-4.274;2022-07-24T02:31:49;9.55;;;3.47;;
70268;SDS011;58514;48.398;-4.274;2022-07-24T02:34:15;7.35;;;2.85;;
70268;SDS011;58514;48.398;-4.274;2022-07-24T02:36:41;9.10;;;2.90;;
70268;SDS011;58514;48.398;-4.274;2022-07-24T02:39:07;5.20;;;2.90;;
70268;SDS011;58514;48.398;-4.274;2022-07-24T02:41:32;4.50;;;3.05;;
70268;SDS011;58514;48.398;-4.274;2022-07-24T02:43:58;6.40;;;2.67;;
70268;SDS011;58514;48.398;-4.274;2022-07-24T02:46:24;8.40;;;2.90;;
70268;SDS011;58514;48.398;-4.274;2022-07-24T02:48:49;4.95;;;3.15;;
70268;SDS011;58514;48.398;-4.274;2022-07-24T02:51:15;6.43;;;3.60;;
70268;SDS011;58514;48.398;-4.274;2022-07-24T02:53:41;4.93;;;3.33;;
70268;SDS011;58514;48.398;-4.274;2022-07-24T02:56:06;5.43;;;2.58;;
70268;SDS011;58514;48.398;-4.274;2022-07-24T02:58:32;4.75;;;3.30;;
70268;SDS011;58514;48.398;-4.274;2022-07-24T03:00:58;4.38;;;2.85;;
70268;SDS011;58514;48.398;-4.274;2022-07-24T03:03:24;4.82;;;3.35;;
70268;SDS011;58514;48.398;-4.274;2022-07-24T03:05:49;5.57;;;3.50;;
70268;SDS011;58514;48.398;-4.274;2022-07-24T03:08:15;4.25;;;3.35;;
70268;SDS011;58514;48.398;-4.274;2022-07-24T03:10:41;4.97;;;3.15;;
70268;SDS011;58514;48.398;-4.274;2022-07-24T03:13:06;5.07;;;2.92;;
70268;SDS011;58514;48.398;-4.274;2022-07-24T03:15:33;7.60;;;3.70;;
70268;SDS011;58514;48.398;-4.274;2022-07-24T03:17:58;6.13;;;3.30;;
70268;SDS011;58514;48.398;-4.274;2022-07-24T03:20:25;4.68;;;3.50;;
70268;SDS011;58514;48.398;-4.274;2022-07-24T03:22:52;8.93;;;3.60;;
70268;SDS011;58514;48.398;-4.274;2022-07-24T03:25:18;6.38;;;3.65;;
70268;SDS011;58514;48.398;-4.274;2022-07-24T03:27:44;9.18;;;3.85;;
70268;SDS011;58514;48.398;-4.274;2022-07-24T03:30:11;5.68;;;3.85;;
70268;SDS011;58514;48.398;-4.274;2022-07-24T03:32:37;5.93;;;3.38;;
70268;SDS011;58514;48.398;-4.274;2022-07-24T03:35:03;7.93;;;3.22;;
70268;SDS011;58514;48.398;-4.274;2022-07-24T03:39:55;11.07;;;4.25;;
70268;SDS011;58514;48.398;-4.274;2022-07-24T03:42:21;6.07;;;4.00;;
70268;SDS011;58514;48.398;-4.274;2022-07-24T03:44:47;7.20;;;3.50;;
70268;SDS011;58514;48.398;-4.274;2022-07-24T03:47:12;10.35;;;4.25;;
70268;SDS011;58514;48.398;-4.274;2022-07-24T03:49:38;8.00;;;3.90;;
70268;SDS011;58514;48.398;-4.274;2022-07-24T03:52:04;10.27;;;4.47;;
70268;SDS011;58514;48.398;-4.274;2022-07-24T03:54:30;6.63;;;3.67;;
70268;SDS011;58514;48.398;-4.274;2022-07-24T03:56:56;5.90;;;4.25;;
70268;SDS011;58514;48.398;-4.274;2022-07-24T03:59:21;8.63;;;3.85;;
70268;SDS011;58514;48.398;-4.274;2022-07-24T04:01:47;7.03;;;4.85;;
70268;SDS011;58514;48.398;-4.274;2022-07-24T04:04:13;7.32;;;4.30;;
70268;SDS011;58514;48.398;-4.274;2022-07-24T04:06:39;8.50;;;4.28;;
70268;SDS011;58514;48.398;-4.274;2022-07-24T04:09:05;6.93;;;3.92;;
70268;SDS011;58514;48.398;-4.274;2022-07-24T04:13:58;6.38;;;3.90;;
70268;SDS011;58514;48.398;-4.274;2022-07-24T04:16:24;8.52;;;4.22;;
70268;SDS011;58514;48.398;-4.274;2022-07-24T04:18:49;7.30;;;4.25;;
70268;SDS011;58514;48.398;-4.274;2022-07-24T04:21:16;6.68;;;3.72;;
70268;SDS011;58514;48.398;-4.274;2022-07-24T04:26:07;4.07;;;3.10;;
70268;SDS011;58514;48.398;-4.274;2022-07-24T04:28:33;6.65;;;4.20;;
70268;SDS011;58514;48.398;-4.274;2022-07-24T04:30:59;9.85;;;4.30;;
70268;SDS011;58514;48.398;-4.274;2022-07-24T04:33:25;6.72;;;3.88;;
70268;SDS011;58514;48.398;-4.274;2022-07-24T04:35:51;5.63;;;4.35;;
70268;SDS011;58514;48.398;-4.274;2022-07-24T04:38:17;5.10;;;3.92;;
70268;SDS011;58514;48.398;-4.274;2022-07-24T04:40:43;5.45;;;4.18;;
70268;SDS011;58514;48.398;-4.274;2022-07-24T04:43:09;7.57;;;4.10;;
70268;SDS011;58514;48.398;-4.274;2022-07-24T04:45:34;13.55;;;4.80;;
70268;SDS011;58514;48.398;-4.274;2022-07-24T04:48:00;7.25;;;3.60;;
70268;SDS011;58514;48.398;-4.274;2022-07-24T04:50:26;6.35;;;3.60;;
70268;SDS011;58514;48.398;-4.274;2022-07-24T04:52:52;6.35;;;4.22;;
70268;SDS011;58514;48.398;-4.274;2022-07-24T04:55:18;4.95;;;3.55;;
70268;SDS011;58514;48.398;-4.274;2022-07-24T04:57:43;8.07;;;4.25;;
70268;SDS011;58514;48.398;-4.274;2022-07-24T05:00:10;9.98;;;4.25;;
70268;SDS011;58514;48.398;-4.274;2022-07-24T05:02:37;12.20;;;4.60;;
70268;SDS011;58514;48.398;-4.274;2022-07-24T05:05:03;5.60;;;4.38;;
70268;SDS011;58514;48.398;-4.274;2022-07-24T05:07:29;4.95;;;4.03;;
70268;SDS011;58514;48.398;-4.274;2022-07-24T05:09:56;6.32;;;4.25;;
70268;SDS011;58514;48.398;-4.274;2022-07-24T05:12:22;12.23;;;4.07;;
70268;SDS011;58514;48.398;-4.274;2022-07-24T05:17:14;10.10;;;3.40;;
70268;SDS011;58514;48.398;-4.274;2022-07-24T05:19:40;10.13;;;4.30;;
70268;SDS011;58514;48.398;-4.274;2022-07-24T05:22:05;6.43;;;3.67;;
70268;SDS011;58514;48.398;-4.274;2022-07-24T05:24:31;9.10;;;3.42;;
70268;SDS011;58514;48.398;-4.274;2022-07-24T05:26:57;5.75;;;3.28;;
70268;SDS011;58514;48.398;-4.274;2022-07-24T05:29:23;5.00;;;3.15;;
70268;SDS011;58514;48.398;-4.274;2022-07-24T05:31:48;8.75;;;4.00;;
70268;SDS011;58514;48.398;-4.274;2022-07-24T05:34:16;5.80;;;3.38;;
70268;SDS011;58514;48.398;-4.274;2022-07-24T05:36:42;6.82;;;3.75;;
70268;SDS011;58514;48.398;-4.274;2022-07-24T05:39:08;5.03;;;3.15;;
70268;SDS011;58514;48.398;-4.274;2022-07-24T05:41:34;7.95;;;3.15;;
70268;SDS011;58514;48.398;-4.274;2022-07-24T05:44:00;6.07;;;3.63;;
70268;SDS011;58514;48.398;-4.274;2022-07-24T05:46:26;9.13;;;3.10;;
70268;SDS011;58514;48.398;-4.274;2022-07-24T05:48:51;3.33;;;2.83;;
70268;SDS011;58514;48.398;-4.274;2022-07-24T05:51:18;4.57;;;3.08;;
70268;SDS011;58514;48.398;-4.274;2022-07-24T05:53:44;9.75;;;3.03;;
70268;SDS011;58514;48.398;-4.274;2022-07-24T05:56:10;5.15;;;2.80;;
70268;SDS011;58514;48.398;-4.274;2022-07-24T05:58:35;7.22;;;2.95;;
70268;SDS011;58514;48.398;-4.274;2022-07-24T06:01:01;6.70;;;2.58;;
70268;SDS011;58514;48.398;-4.274;2022-07-24T06:03:27;6.57;;;2.60;;
70268;SDS011;58514;48.398;-4.274;2022-07-24T06:05:52;6.82;;;4.10;;
70268;SDS011;58514;48.398;-4.274;2022-07-24T06:08:18;5.05;;;2.60;;
70268;SDS011;58514;48.398;-4.274;2022-07-24T06:10:44;3.88;;;2.85;;
70268;SDS011;58514;48.398;-4.274;2022-07-24T06:13:10;7.13;;;3.90;;
70268;SDS011;58514;48.398;-4.274;2022-07-24T06:15:35;5.43;;;2.85;;
70268;SDS011;58514;48.398;-4.274;2022-07-24T06:18:01;3.22;;;2.40;;
70268;SDS011;58514;48.398;-4.274;2022-07-24T06:20:27;9.80;;;4.07;;
70268;SDS011;58514;48.398;-4.274;2022-07-24T06:22:53;8.45;;;4.13;;
70268;SDS011;58514;48.398;-4.274;2022-07-24T06:25:18;7.75;;;3.00;;
70268;SDS011;58514;48.398;-4.274;2022-07-24T06:27:46;2.45;;;2.20;;
70268;SDS011;58514;48.398;-4.274;2022-07-24T06:30:17;3.35;;;2.67;;
70268;SDS011;58514;48.398;-4.274;2022-07-24T06:32:46;10.23;;;3.10;;
70268;SDS011;58514;48.398;-4.274;2022-07-24T06:35:12;4.50;;;3.15;;
70268;SDS011;58514;48.398;-4.274;2022-07-24T06:37:38;4.18;;;2.67;;
70268;SDS011;58514;48.398;-4.274;2022-07-24T06:40:05;4.43;;;2.40;;
70268;SDS011;58514;48.398;-4.274;2022-07-24T06:42:31;4.15;;;2.20;;
70268;SDS011;58514;48.398;-4.274;2022-07-24T06:44:57;5.18;;;2.55;;
70268;SDS011;58514;48.398;-4.274;2022-07-24T06:47:22;3.80;;;2.58;;
70268;SDS011;58514;48.398;-4.274;2022-07-24T06:49:49;6.80;;;2.58;;
70268;SDS011;58514;48.398;-4.274;2022-07-24T06:52:15;3.90;;;2.45;;
70268;SDS011;58514;48.398;-4.274;2022-07-24T06:54:41;4.53;;;2.45;;
70268;SDS011;58514;48.398;-4.274;2022-07-24T06:57:06;5.30;;;2.47;;
70268;SDS011;58514;48.398;-4.274;2022-07-24T06:59:32;4.57;;;2.58;;
70268;SDS011;58514;48.398;-4.274;2022-07-24T07:01:58;3.80;;;2.20;;
70268;SDS011;58514;48.398;-4.274;2022-07-24T07:04:24;5.80;;;2.35;;
70268;SDS011;58514;48.398;-4.274;2022-07-24T07:06:49;5.85;;;2.90;;
70268;SDS011;58514;48.398;-4.274;2022-07-24T07:09:15;4.18;;;2.53;;
70268;SDS011;58514;48.398;-4.274;2022-07-24T07:11:41;6.53;;;2.40;;
70268;SDS011;58514;48.398;-4.274;2022-07-24T07:14:06;6.65;;;2.17;;
70268;SDS011;58514;48.398;-4.274;2022-07-24T07:16:32;5.40;;;2.30;;
70268;SDS011;58514;48.398;-4.274;2022-07-24T07:18:58;4.72;;;2.17;;
70268;SDS011;58514;48.398;-4.274;2022-07-24T07:21:23;4.07;;;2.15;;
70268;SDS011;58514;48.398;-4.274;2022-07-24T07:23:49;5.85;;;2.63;;
70268;SDS011;58514;48.398;-4.274;2022-07-24T07:26:15;5.03;;;2.15;;
70268;SDS011;58514;48.398;-4.274;2022-07-24T07:28:40;4.30;;;1.98;;
70268;SDS011;58514;48.398;-4.274;2022-07-24T07:31:06;2.92;;;1.88;;
70268;SDS011;58514;48.398;-4.274;2022-07-24T07:33:32;2.03;;;1.60;;
70268;SDS011;58514;48.398;-4.274;2022-07-24T07:35:59;6.30;;;2.38;;
70268;SDS011;58514;48.398;-4.274;2022-07-24T07:38:25;3.08;;;2.13;;
70268;SDS011;58514;48.398;-4.274;2022-07-24T07:40:50;4.90;;;2.15;;
70268;SDS011;58514;48.398;-4.274;2022-07-24T07:43:16;4.18;;;1.98;;
70268;SDS011;58514;48.398;-4.274;2022-07-24T07:45:42;5.32;;;1.65;;
70268;SDS011;58514;48.398;-4.274;2022-07-24T07:48:07;2.03;;;1.58;;
70268;SDS011;58514;48.398;-4.274;2022-07-24T07:50:33;2.83;;;1.40;;
70268;SDS011;58514;48.398;-4.274;2022-07-24T07:52:59;4.88;;;2.17;;
70268;SDS011;58514;48.398;-4.274;2022-07-24T07:55:25;3.78;;;1.73;;
70268;SDS011;58514;48.398;-4.274;2022-07-24T07:57:51;7.75;;;2.00;;
70268;SDS011;58514;48.398;-4.274;2022-07-24T08:00:17;8.20;;;2.00;;
70268;SDS011;58514;48.398;-4.274;2022-07-24T08:02:44;5.30;;;1.90;;
70268;SDS011;58514;48.398;-4.274;2022-07-24T08:05:10;5.35;;;2.10;;
70268;SDS011;58514;48.398;-4.274;2022-07-24T08:07:36;3.55;;;1.60;;
70268;SDS011;58514;48.398;-4.274;2022-07-24T08:10:02;5.32;;;1.70;;
70268;SDS011;58514;48.398;-4.274;2022-07-24T08:12:29;5.32;;;2.35;;
70268;SDS011;58514;48.398;-4.274;2022-07-24T08:14:55;3.67;;;1.63;;
70268;SDS011;58514;48.398;-4.274;2022-07-24T08:17:21;4.28;;;1.63;;
70268;SDS011;58514;48.398;-4.274;2022-07-24T08:19:47;4.05;;;1.65;;
70268;SDS011;58514;48.398;-4.274;2022-07-24T08:22:13;2.22;;;1.52;;
70268;SDS011;58514;48.398;-4.274;2022-07-24T08:24:39;5.32;;;1.98;;
70268;SDS011;58514;48.398;-4.274;2022-07-24T08:27:05;5.80;;;1.85;;
70268;SDS011;58514;48.398;-4.274;2022-07-24T08:29:31;4.68;;;1.60;;
70268;SDS011;58514;48.398;-4.274;2022-07-24T08:31:57;3.55;;;1.63;;
70268;SDS011;58514;48.398;-4.274;2022-07-24T08:34:23;5.68;;;1.67;;
70268;SDS011;58514;48.398;-4.274;2022-07-24T08:36:49;3.65;;;1.85;;
70268;SDS011;58514;48.398;-4.274;2022-07-24T08:39:16;2.97;;;1.50;;
70268;SDS011;58514;48.398;-4.274;2022-07-24T08:41:42;4.53;;;1.60;;
70268;SDS011;58514;48.398;-4.274;2022-07-24T08:44:09;3.40;;;1.30;;
70268;SDS011;58514;48.398;-4.274;2022-07-24T08:46:39;3.45;;;1.50;;
70268;SDS011;58514;48.398;-4.274;2022-07-24T08:49:06;8.75;;;2.33;;
70268;SDS011;58514;48.398;-4.274;2022-07-24T08:51:34;5.03;;;1.63;;
70268;SDS011;58514;48.398;-4.274;2022-07-24T08:54:03;2.00;;;1.50;;
70268;SDS011;58514;48.398;-4.274;2022-07-24T08:56:29;6.22;;;1.70;;
70268;SDS011;58514;48.398;-4.274;2022-07-24T08:58:55;5.70;;;1.70;;
70268;SDS011;58514;48.398;-4.274;2022-07-24T09:01:21;2.47;;;1.40;;
70268;SDS011;58514;48.398;-4.274;2022-07-24T09:03:47;2.08;;;1.52;;
70268;SDS011;58514;48.398;-4.274;2022-07-24T09:06:13;2.63;;;1.40;;
70268;SDS011;58514;48.398;-4.274;2022-07-24T09:08:43;4.72;;;1.30;;
70268;SDS011;58514;48.398;-4.274;2022-07-24T09:11:25;6.65;;;1.75;;
70268;SDS011;58514;48.398;-4.274;2022-07-24T09:13:58;4.55;;;1.65;;
70268;SDS011;58514;48.398;-4.274;2022-07-24T09:16:44;3.58;;;1.50;;
70268;SDS011;58514;48.398;-4.274;2022-07-24T09:21:39;2.28;;;1.52;;
70268;SDS011;58514;48.398;-4.274;2022-07-24T09:26:48;2.10;;;1.63;;
70268;SDS011;58514;48.398;-4.274;2022-07-24T09:29:21;3.42;;;1.45;;
70268;SDS011;58514;48.398;-4.274;2022-07-24T09:31:59;3.85;;;1.40;;
70268;SDS011;58514;48.398;-4.274;2022-07-24T09:39:25;5.80;;;1.33;;
70268;SDS011;58514;48.398;-4.274;2022-07-24T09:41:54;3.70;;;1.55;;
70268;SDS011;58514;48.398;-4.274;2022-07-24T09:44:21;4.07;;;1.60;;
70268;SDS011;58514;48.398;-4.274;2022-07-24T09:46:58;3.22;;;1.60;;
70268;SDS011;58514;48.398;-4.274;2022-07-24T09:49:26;3.97;;;1.65;;
70268;SDS011;58514;48.398;-4.274;2022-07-24T09:54:58;2.65;;;1.33;;
70268;SDS011;58514;48.398;-4.274;2022-07-24T09:59:55;4.32;;;1.85;;
70268;SDS011;58514;48.398;-4.274;2022-07-24T10:02:27;4.72;;;1.42;;
70268;SDS011;58514;48.398;-4.274;2022-07-24T10:04:58;2.42;;;1.30;;
70268;SDS011;58514;48.398;-4.274;2022-07-24T10:07:25;4.75;;;1.42;;
70268;SDS011;58514;48.398;-4.274;2022-07-24T10:09:53;4.20;;;1.70;;
70268;SDS011;58514;48.398;-4.274;2022-07-24T10:12:22;3.35;;;1.40;;
70268;SDS011;58514;48.398;-4.274;2022-07-24T10:14:50;5.57;;;1.80;;
70268;SDS011;58514;48.398;-4.274;2022-07-24T10:17:18;7.90;;;1.63;;
70268;SDS011;58514;48.398;-4.274;2022-07-24T10:19:46;5.80;;;1.65;;
70268;SDS011;58514;48.398;-4.274;2022-07-24T10:22:17;3.63;;;1.60;;
70268;SDS011;58514;48.398;-4.274;2022-07-24T10:24:57;2.95;;;1.30;;
70268;SDS011;58514;48.398;-4.274;2022-07-24T10:27:30;3.13;;;1.80;;
70268;SDS011;58514;48.398;-4.274;2022-07-24T10:30:02;1.90;;;1.50;;
70268;SDS011;58514;48.398;-4.274;2022-07-24T10:32:33;4.82;;;1.60;;
70268;SDS011;58514;48.398;-4.274;2022-07-24T10:40:27;2.88;;;1.38;;
70268;SDS011;58514;48.398;-4.274;2022-07-24T10:43:10;3.42;;;1.13;;
70268;SDS011;58514;48.398;-4.274;2022-07-24T10:45:43;1.42;;;1.20;;
70268;SDS011;58514;48.398;-4.274;2022-07-24T10:50:59;1.90;;;1.30;;
70268;SDS011;58514;48.398;-4.274;2022-07-24T10:53:25;2.38;;;1.30;;
70268;SDS011;58514;48.398;-4.274;2022-07-24T11:03:57;3.45;;;1.50;;
70268;SDS011;58514;48.398;-4.274;2022-07-24T11:06:43;3.80;;;1.48;;
70268;SDS011;58514;48.398;-4.274;2022-07-24T11:09:18;5.20;;;1.67;;
70268;SDS011;58514;48.398;-4.274;2022-07-24T11:14:18;6.05;;;1.38;;
70268;SDS011;58514;48.398;-4.274;2022-07-24T11:19:49;2.10;;;1.30;;
70268;SDS011;58514;48.398;-4.274;2022-07-24T11:22:32;3.83;;;1.38;;
70268;SDS011;58514;48.398;-4.274;2022-07-24T11:25:25;2.80;;;1.33;;
70268;SDS011;58514;48.398;-4.274;2022-07-24T11:30:21;2.78;;;1.20;;
70268;SDS011;58514;48.398;-4.274;2022-07-24T11:32:48;1.67;;;1.20;;
70268;SDS011;58514;48.398;-4.274;2022-07-24T11:35:13;6.05;;;1.45;;
70268;SDS011;58514;48.398;-4.274;2022-07-24T11:37:40;4.78;;;1.48;;
70268;SDS011;58514;48.398;-4.274;2022-07-24T11:40:07;3.53;;;1.40;;
70268;SDS011;58514;48.398;-4.274;2022-07-24T11:42:34;4.82;;;1.40;;
70268;SDS011;58514;48.398;-4.274;2022-07-24T11:45:00;4.30;;;1.30;;
70268;SDS011;58514;48.398;-4.274;2022-07-24T11:47:27;8.63;;;1.88;;
70268;SDS011;58514;48.398;-4.274;2022-07-24T11:49:54;2.40;;;1.23;;
70268;SDS011;58514;48.398;-4.274;2022-07-24T11:52:26;1.75;;;1.10;;
70268;SDS011;58514;48.398;-4.274;2022-07-24T11:54:56;6.65;;;1.60;;
70268;SDS011;58514;48.398;-4.274;2022-07-24T11:57:38;5.45;;;1.50;;
70268;SDS011;58514;48.398;-4.274;2022-07-24T12:00:15;5.95;;;1.42;;
70268;SDS011;58514;48.398;-4.274;2022-07-24T12:02:43;1.45;;;1.05;;
70268;SDS011;58514;48.398;-4.274;2022-07-24T12:05:10;4.32;;;1.65;;
70268;SDS011;58514;48.398;-4.274;2022-07-24T12:07:36;2.92;;;1.83;;
70268;SDS011;58514;48.398;-4.274;2022-07-24T12:10:02;6.97;;;1.52;;
70268;SDS011;58514;48.398;-4.274;2022-07-24T12:12:30;1.25;;;1.10;;
70268;SDS011;58514;48.398;-4.274;2022-07-24T12:15:05;4.03;;;1.30;;
70268;SDS011;58514;48.398;-4.274;2022-07-24T12:20:34;1.80;;;1.25;;
70268;SDS011;58514;48.398;-4.274;2022-07-24T12:23:03;4.90;;;2.08;;
70268;SDS011;58514;48.398;-4.274;2022-07-24T12:25:31;4.97;;;1.15;;
70268;SDS011;58514;48.398;-4.274;2022-07-24T12:30:33;5.70;;;1.42;;
70268;SDS011;58514;48.398;-4.274;2022-07-24T12:41:08;3.90;;;1.38;;
70268;SDS011;58514;48.398;-4.274;2022-07-24T12:43:59;4.28;;;1.33;;
70268;SDS011;58514;48.398;-4.274;2022-07-24T12:49:07;5.70;;;1.33;;
70268;SDS011;58514;48.398;-4.274;2022-07-24T12:54:23;4.78;;;1.52;;
70268;SDS011;58514;48.398;-4.274;2022-07-24T12:56:57;4.03;;;1.65;;
70268;SDS011;58514;48.398;-4.274;2022-07-24T12:59:25;8.10;;;1.58;;
70268;SDS011;58514;48.398;-4.274;2022-07-24T13:01:54;5.15;;;1.27;;
70268;SDS011;58514;48.398;-4.274;2022-07-24T13:04:25;3.10;;;1.45;;
70268;SDS011;58514;48.398;-4.274;2022-07-24T13:06:52;7.50;;;1.42;;
70268;SDS011;58514;48.398;-4.274;2022-07-24T13:09:20;1.77;;;1.27;;
70268;SDS011;58514;48.398;-4.274;2022-07-24T13:11:47;6.85;;;2.05;;
70268;SDS011;58514;48.398;-4.274;2022-07-24T13:14:15;5.85;;;1.40;;
70268;SDS011;58514;48.398;-4.274;2022-07-24T13:16:42;5.07;;;1.35;;
70268;SDS011;58514;48.398;-4.274;2022-07-24T13:19:09;3.13;;;1.33;;
70268;SDS011;58514;48.398;-4.274;2022-07-24T13:21:36;5.05;;;1.33;;
70268;SDS011;58514;48.398;-4.274;2022-07-24T13:24:06;11.80;;;1.40;;
70268;SDS011;58514;48.398;-4.274;2022-07-24T13:26:33;3.53;;;1.27;;
70268;SDS011;58514;48.398;-4.274;2022-07-24T13:29:01;3.63;;;1.65;;
70268;SDS011;58514;48.398;-4.274;2022-07-24T13:31:26;1.90;;;1.15;;
70268;SDS011;58514;48.398;-4.274;2022-07-24T13:33:52;2.20;;;1.30;;
70268;SDS011;58514;48.398;-4.274;2022-07-24T13:36:18;3.92;;;1.70;;
70268;SDS011;58514;48.398;-4.274;2022-07-24T13:38:44;3.00;;;1.20;;
70268;SDS011;58514;48.398;-4.274;2022-07-24T13:41:10;1.90;;;1.20;;
70268;SDS011;58514;48.398;-4.274;2022-07-24T13:43:36;3.60;;;1.10;;
70268;SDS011;58514;48.398;-4.274;2022-07-24T13:46:02;1.92;;;1.40;;
70268;SDS011;58514;48.398;-4.274;2022-07-24T13:48:29;3.42;;;1.33;;
70268;SDS011;58514;48.398;-4.274;2022-07-24T13:50:55;1.42;;;0.95;;
70268;SDS011;58514;48.398;-4.274;2022-07-24T13:53:21;2.63;;;1.48;;
70268;SDS011;58514;48.398;-4.274;2022-07-24T13:55:46;2.53;;;1.30;;
70268;SDS011;58514;48.398;-4.274;2022-07-24T13:58:12;3.78;;;1.33;;
70268;SDS011;58514;48.398;-4.274;2022-07-24T14:00:38;4.32;;;1.80;;
70268;SDS011;58514;48.398;-4.274;2022-07-24T14:03:04;1.92;;;1.10;;
70268;SDS011;58514;48.398;-4.274;2022-07-24T14:05:30;6.82;;;1.20;;
70268;SDS011;58514;48.398;-4.274;2022-07-24T14:07:56;4.70;;;1.35;;
70268;SDS011;58514;48.398;-4.274;2022-07-24T14:10:22;3.53;;;1.40;;
70268;SDS011;58514;48.398;-4.274;2022-07-24T14:12:48;3.70;;;1.27;;
70268;SDS011;58514;48.398;-4.274;2022-07-24T14:15:14;3.42;;;1.48;;
70268;SDS011;58514;48.398;-4.274;2022-07-24T14:17:41;2.25;;;1.30;;
70268;SDS011;58514;48.398;-4.274;2022-07-24T14:20:12;8.27;;;3.33;;
70268;SDS011;58514;48.398;-4.274;2022-07-24T14:22:39;4.38;;;2.00;;
70268;SDS011;58514;48.398;-4.274;2022-07-24T14:25:05;3.40;;;1.63;;
70268;SDS011;58514;48.398;-4.274;2022-07-24T14:27:32;1.52;;;1.08;;
70268;SDS011;58514;48.398;-4.274;2022-07-24T14:29:59;2.65;;;1.10;;
70268;SDS011;58514;48.398;-4.274;2022-07-24T14:32:25;3.92;;;1.35;;
70268;SDS011;58514;48.398;-4.274;2022-07-24T14:34:51;2.53;;;1.23;;
70268;SDS011;58514;48.398;-4.274;2022-07-24T14:37:17;4.65;;;1.20;;
70268;SDS011;58514;48.398;-4.274;2022-07-24T14:39:43;6.22;;;1.50;;
70268;SDS011;58514;48.398;-4.274;2022-07-24T14:42:09;3.92;;;1.85;;
70268;SDS011;58514;48.398;-4.274;2022-07-24T14:44:35;2.30;;;1.30;;
70268;SDS011;58514;48.398;-4.274;2022-07-24T14:47:01;2.65;;;1.27;;
70268;SDS011;58514;48.398;-4.274;2022-07-24T14:49:29;2.65;;;1.17;;
70268;SDS011;58514;48.398;-4.274;2022-07-24T14:51:56;4.38;;;1.63;;
70268;SDS011;58514;48.398;-4.274;2022-07-24T14:54:22;5.05;;;1.20;;
70268;SDS011;58514;48.398;-4.274;2022-07-24T14:56:48;5.65;;;1.73;;
70268;SDS011;58514;48.398;-4.274;2022-07-24T14:59:14;3.97;;;1.30;;
70268;SDS011;58514;48.398;-4.274;2022-07-24T15:01:40;4.47;;;1.23;;
70268;SDS011;58514;48.398;-4.274;2022-07-24T15:04:07;4.18;;;1.73;;
70268;SDS011;58514;48.398;-4.274;2022-07-24T15:06:33;2.85;;;1.23;;
70268;SDS011;58514;48.398;-4.274;2022-07-24T15:08:59;3.17;;;1.23;;
70268;SDS011;58514;48.398;-4.274;2022-07-24T15:11:25;2.70;;;1.63;;
70268;SDS011;58514;48.398;-4.274;2022-07-24T15:13:51;5.75;;;1.70;;
70268;SDS011;58514;48.398;-4.274;2022-07-24T15:16:17;4.03;;;1.40;;
70268;SDS011;58514;48.398;-4.274;2022-07-24T15:18:43;3.83;;;1.33;;
70268;SDS011;58514;48.398;-4.274;2022-07-24T15:21:09;2.63;;;1.42;;
70268;SDS011;58514;48.398;-4.274;2022-07-24T15:26:01;3.17;;;1.42;;
70268;SDS011;58514;48.398;-4.274;2022-07-24T15:28:27;1.75;;;1.27;;
70268;SDS011;58514;48.398;-4.274;2022-07-24T15:30:53;3.85;;;0.98;;
70268;SDS011;58514;48.398;-4.274;2022-07-24T15:33:19;2.47;;;1.05;;
70268;SDS011;58514;48.398;-4.274;2022-07-24T15:35:44;3.75;;;1.35;;
70268;SDS011;58514;48.398;-4.274;2022-07-24T15:38:10;2.03;;;1.00;;
70268;SDS011;58514;48.398;-4.274;2022-07-24T15:40:38;3.25;;;1.30;;
70268;SDS011;58514;48.398;-4.274;2022-07-24T15:43:04;4.45;;;1.38;;
70268;SDS011;58514;48.398;-4.274;2022-07-24T15:45:30;4.93;;;1.48;;